Sao Joao da Ponte, Brazil
Current Conditions -  °F | °C
As of 11:00 AM on Friday 28 Nov 2014 (Local Time) from SBMK Reporting Station
Few Clouds Few Clouds  
Wind Chill: 86°   Ceiling: Unl
Heat Index: 88°   Visibility: 6mi
Dew Point: 66°   Wind: 6mph
Humidity: 51%   Direction: 330°NNW
Pressure: 30"   Gusts: NA
Location:  15.93°S, 44.02°W
Report Text: SBMK 281300Z 33005KT 260V030 9999 FEW040 FEW045TCU 30/19 Q1016
Loading
Personal Weather Stations






























Interactive Weather Map New forecast layout! Learn more

10-Day Weather Forecast

Advertisements
Track Severe Weather on mobile